This is the latest recevied weather packets stored in our database for station/object W0VI. If no packets are shown the sender has not sent any weather packets the latest 1 day(s).
| Time | Temp. | Humidity | Pressure | Rain* | Wind** | Luminosity | Snow |
|---|---|---|---|---|---|---|---|
| 1778044977 | 2.78° C | 60% | 1014.2 hPa | 0 mm | 0.89 m/s, 301° | 0 W/m² | - |
| 1778044673 | 2.78° C | 60% | 1014 hPa | 0 mm | 0.45 m/s, 355° | 0 W/m² | - |
| 1778044369 | 2.78° C | 60% | 1014 hPa | 0 mm | 0.45 m/s, 322° | 0 W/m² | - |
| 1778044068 | 2.78° C | 60% | 1013.9 hPa | 0 mm | 0 m/s | 0 W/m² | - |
| 1778043765 | 2.78° C | 59% | 1014.1 hPa | 0 mm | 0.45 m/s, 335° | 0 W/m² | - |
| 1778043461 | 2.78° C | 59% | 1013.8 hPa | 0 mm | 0 m/s | 0 W/m² | - |
| 1778043158 | 3.33° C | 58% | 1013.9 hPa | 0 mm | 0.89 m/s, 2° | 0 W/m² | - |
| 1778042855 | 3.33° C | 58% | 1013.9 hPa | 0 mm | 0.45 m/s, 338° | 0 W/m² | - |
| 1778042552 | 3.33° C | 57% | 1013.9 hPa | 0 mm | 0.45 m/s, 356° | 0 W/m² | - |
| 1778042250 | 3.33° C | 57% | 1013.7 hPa | 0 mm | 0.89 m/s, 330° | 0 W/m² | - |
| 1778041947 | 3.33° C | 57% | 1013.9 hPa | 0 mm | 1.79 m/s, 3° | 0 W/m² | - |
| 1778041646 | 3.33° C | 57% | 1013.8 hPa | 0 mm | 0.45 m/s, 325° | 0 W/m² | - |
| 1778041353 | 3.33° C | 57% | 1013.7 hPa | 0 mm | 0.89 m/s, 296° | 0 W/m² | - |
| 1778041042 | 3.89° C | 56% | 1013.9 hPa | 0 mm | 1.34 m/s, 289° | 0 W/m² | - |
| 1778040739 | 3.89° C | 56% | 1013.7 hPa | 0 mm | 1.34 m/s, 349° | 0 W/m² | - |
| 1778040436 | 3.89° C | 56% | 1013.8 hPa | 0 mm | 0 m/s | 0 W/m² | - |
| 1778040133 | 3.89° C | 56% | 1013.8 hPa | 0 mm | 0.89 m/s, 335° | 0 W/m² | - |
| 1778039830 | 3.89° C | 56% | 1013.7 hPa | 0 mm | 1.34 m/s, 312° | 0 W/m² | - |
| 1778039527 | 3.89° C | 55% | 1013.7 hPa | 0 mm | 1.34 m/s, 337° | 0 W/m² | - |
| 1778039223 | 3.89° C | 55% | 1013.7 hPa | 0 mm | 1.79 m/s, 295° | 0 W/m² | - |
| 1778038921 | 3.89° C | 54% | 1013.6 hPa | 0 mm | 1.34 m/s, 317° | 0 W/m² | - |
| 1778038618 | 4.44° C | 54% | 1013.6 hPa | 0 mm | 0.45 m/s, 324° | 0 W/m² | - |
| 1778038315 | 4.44° C | 55% | 1013.3 hPa | 0 mm | 0.45 m/s, 6° | 0 W/m² | - |
| 1778038012 | 4.44° C | 54% | 1013.3 hPa | 0 mm | 1.79 m/s, 3° | 0 W/m² | - |
| 1778037709 | 4.44° C | 54% | 1013.3 hPa | 0 mm | 0.89 m/s, 326° | 0 W/m² | - |
* Rain latest hour (hover to see other rain measurements)
** Current wind speed in m/s (hover to see current wind gust speed)